sensor_id;sensor_type;location;lat;lon;timestamp;noise_LAeq;noise_LA_min;noise_LA_max;noise_LA01;noise_LA95
63692;Laerm;49838;51.798;10.954;2023-07-20T00:02:13;29.44;26.97;43.54;;
63692;Laerm;49838;51.798;10.954;2023-07-20T00:04:41;28.80;26.77;37.12;;
63692;Laerm;49838;51.798;10.954;2023-07-20T00:07:09;28.45;26.60;36.27;;
63692;Laerm;49838;51.798;10.954;2023-07-20T00:09:37;28.08;26.79;36.31;;
63692;Laerm;49838;51.798;10.954;2023-07-20T00:12:05;28.58;26.81;37.40;;
63692;Laerm;49838;51.798;10.954;2023-07-20T00:14:32;28.83;27.06;40.17;;
63692;Laerm;49838;51.798;10.954;2023-07-20T00:17:00;28.47;26.76;34.94;;
63692;Laerm;49838;51.798;10.954;2023-07-20T00:19:28;28.90;26.70;39.11;;
63692;Laerm;49838;51.798;10.954;2023-07-20T00:21:56;29.37;27.51;34.98;;
63692;Laerm;49838;51.798;10.954;2023-07-20T00:24:24;29.96;27.65;41.38;;
63692;Laerm;49838;51.798;10.954;2023-07-20T00:26:52;29.14;27.30;39.60;;
63692;Laerm;49838;51.798;10.954;2023-07-20T00:29:19;29.23;26.99;37.15;;
63692;Laerm;49838;51.798;10.954;2023-07-20T00:31:46;29.56;27.72;39.54;;
63692;Laerm;49838;51.798;10.954;2023-07-20T00:34:15;28.95;27.21;34.71;;
63692;Laerm;49838;51.798;10.954;2023-07-20T00:36:42;29.74;27.64;36.59;;
63692;Laerm;49838;51.798;10.954;2023-07-20T00:39:09;35.76;27.59;52.00;;
63692;Laerm;49838;51.798;10.954;2023-07-20T00:41:38;31.05;28.23;45.13;;
63692;Laerm;49838;51.798;10.954;2023-07-20T00:44:05;31.19;28.33;44.09;;
63692;Laerm;49838;51.798;10.954;2023-07-20T00:46:33;37.85;28.66;55.12;;
63692;Laerm;49838;51.798;10.954;2023-07-20T00:49:00;30.62;28.10;43.79;;
63692;Laerm;49838;51.798;10.954;2023-07-20T00:51:28;30.51;27.94;39.77;;
63692;Laerm;49838;51.798;10.954;2023-07-20T00:53:56;29.73;27.36;39.95;;
63692;Laerm;49838;51.798;10.954;2023-07-20T00:56:24;29.93;27.46;38.97;;
63692;Laerm;49838;51.798;10.954;2023-07-20T00:58:53;30.79;28.45;37.13;;
63692;Laerm;49838;51.798;10.954;2023-07-20T01:01:21;30.35;27.72;40.95;;
63692;Laerm;49838;51.798;10.954;2023-07-20T01:03:49;29.40;27.39;34.87;;
63692;Laerm;49838;51.798;10.954;2023-07-20T01:06:26;29.29;26.94;37.56;;
63692;Laerm;49838;51.798;10.954;2023-07-20T01:09:02;30.39;27.23;38.39;;
63692;Laerm;49838;51.798;10.954;2023-07-20T01:11:38;28.72;26.97;39.97;;
63692;Laerm;49838;51.798;10.954;2023-07-20T01:14:11;29.65;27.46;43.23;;
63692;Laerm;49838;51.798;10.954;2023-07-20T01:16:39;32.26;27.44;57.14;;
63692;Laerm;49838;51.798;10.954;2023-07-20T01:19:06;31.60;27.23;54.79;;
63692;Laerm;49838;51.798;10.954;2023-07-20T01:21:39;29.90;27.24;45.64;;
63692;Laerm;49838;51.798;10.954;2023-07-20T01:24:28;34.04;27.54;48.91;;
63692;Laerm;49838;51.798;10.954;2023-07-20T01:27:27;29.44;27.23;35.76;;
63692;Laerm;49838;51.798;10.954;2023-07-20T01:30:16;30.01;27.01;42.89;;
63692;Laerm;49838;51.798;10.954;2023-07-20T01:32:52;28.35;26.95;39.20;;
63692;Laerm;49838;51.798;10.954;2023-07-20T01:35:23;28.54;26.94;34.31;;
63692;Laerm;49838;51.798;10.954;2023-07-20T01:37:51;29.64;26.69;45.37;;
63692;Laerm;49838;51.798;10.954;2023-07-20T01:40:22;31.34;26.98;53.20;;
63692;Laerm;49838;51.798;10.954;2023-07-20T01:42:52;28.45;26.93;34.64;;
63692;Laerm;49838;51.798;10.954;2023-07-20T01:45:19;30.08;27.41;42.90;;
63692;Laerm;49838;51.798;10.954;2023-07-20T01:47:47;30.96;27.87;42.70;;
63692;Laerm;49838;51.798;10.954;2023-07-20T01:50:16;28.99;27.17;35.48;;
63692;Laerm;49838;51.798;10.954;2023-07-20T01:52:43;29.69;27.24;40.63;;
63692;Laerm;49838;51.798;10.954;2023-07-20T01:55:10;29.31;26.88;42.37;;
63692;Laerm;49838;51.798;10.954;2023-07-20T01:57:38;30.10;27.25;53.08;;
63692;Laerm;49838;51.798;10.954;2023-07-20T02:00:06;30.60;27.66;42.01;;
63692;Laerm;49838;51.798;10.954;2023-07-20T02:02:35;29.56;27.62;39.85;;
63692;Laerm;49838;51.798;10.954;2023-07-20T02:05:03;30.52;28.08;34.27;;
63692;Laerm;49838;51.798;10.954;2023-07-20T02:07:33;31.54;28.16;40.84;;
63692;Laerm;49838;51.798;10.954;2023-07-20T02:10:00;30.67;28.03;39.59;;
63692;Laerm;49838;51.798;10.954;2023-07-20T02:12:27;32.06;27.86;42.31;;
63692;Laerm;49838;51.798;10.954;2023-07-20T02:14:55;32.85;28.87;43.78;;
63692;Laerm;49838;51.798;10.954;2023-07-20T02:17:22;38.50;28.40;62.99;;
63692;Laerm;49838;51.798;10.954;2023-07-20T02:19:50;35.61;29.11;44.43;;
63692;Laerm;49838;51.798;10.954;2023-07-20T02:22:18;38.49;32.62;43.02;;
63692;Laerm;49838;51.798;10.954;2023-07-20T02:24:46;33.20;28.03;41.35;;
63692;Laerm;49838;51.798;10.954;2023-07-20T02:27:14;32.35;28.54;43.94;;
63692;Laerm;49838;51.798;10.954;2023-07-20T02:29:42;33.93;28.46;45.15;;
63692;Laerm;49838;51.798;10.954;2023-07-20T02:32:09;34.27;28.93;58.83;;
63692;Laerm;49838;51.798;10.954;2023-07-20T02:34:37;33.11;29.60;44.52;;
63692;Laerm;49838;51.798;10.954;2023-07-20T02:37:05;34.69;29.29;44.85;;
63692;Laerm;49838;51.798;10.954;2023-07-20T02:39:32;34.48;28.95;43.46;;
63692;Laerm;49838;51.798;10.954;2023-07-20T02:42:01;51.86;30.09;70.12;;
63692;Laerm;49838;51.798;10.954;2023-07-20T02:44:28;36.18;30.56;47.52;;
63692;Laerm;49838;51.798;10.954;2023-07-20T02:46:56;33.34;29.41;41.42;;
63692;Laerm;49838;51.798;10.954;2023-07-20T02:49:23;34.55;28.92;44.45;;
63692;Laerm;49838;51.798;10.954;2023-07-20T02:51:51;32.40;28.39;53.45;;
63692;Laerm;49838;51.798;10.954;2023-07-20T02:54:18;30.40;28.08;38.06;;
63692;Laerm;49838;51.798;10.954;2023-07-20T02:56:45;31.33;27.94;45.77;;
63692;Laerm;49838;51.798;10.954;2023-07-20T02:59:14;35.98;29.33;51.06;;
63692;Laerm;49838;51.798;10.954;2023-07-20T03:01:42;42.96;28.92;69.17;;
63692;Laerm;49838;51.798;10.954;2023-07-20T03:04:09;31.85;28.80;37.55;;
63692;Laerm;49838;51.798;10.954;2023-07-20T03:06:38;36.68;30.26;58.76;;
63692;Laerm;49838;51.798;10.954;2023-07-20T03:09:06;52.09;29.09;68.39;;
63692;Laerm;49838;51.798;10.954;2023-07-20T03:11:35;51.85;29.48;68.76;;
63692;Laerm;49838;51.798;10.954;2023-07-20T03:14:03;34.29;30.18;50.01;;
63692;Laerm;49838;51.798;10.954;2023-07-20T03:16:31;57.15;29.41;74.94;;
63692;Laerm;49838;51.798;10.954;2023-07-20T03:18:59;48.65;30.44;66.09;;
63692;Laerm;49838;51.798;10.954;2023-07-20T03:21:26;49.04;30.48;65.81;;
63692;Laerm;49838;51.798;10.954;2023-07-20T03:23:55;46.33;31.14;63.43;;
63692;Laerm;49838;51.798;10.954;2023-07-20T03:26:22;42.63;31.14;63.01;;
63692;Laerm;49838;51.798;10.954;2023-07-20T03:28:49;55.96;32.42;73.91;;
63692;Laerm;49838;51.798;10.954;2023-07-20T03:31:17;50.04;30.77;66.93;;
63692;Laerm;49838;51.798;10.954;2023-07-20T03:33:45;48.94;30.80;66.68;;
63692;Laerm;49838;51.798;10.954;2023-07-20T03:36:13;50.51;31.33;66.93;;
63692;Laerm;49838;51.798;10.954;2023-07-20T03:38:40;51.76;31.77;68.49;;
63692;Laerm;49838;51.798;10.954;2023-07-20T03:41:08;45.75;31.78;61.33;;
63692;Laerm;49838;51.798;10.954;2023-07-20T03:43:35;47.33;31.04;65.86;;
63692;Laerm;49838;51.798;10.954;2023-07-20T03:46:02;56.91;33.28;70.56;;
63692;Laerm;49838;51.798;10.954;2023-07-20T03:48:33;38.71;30.97;51.17;;
63692;Laerm;49838;51.798;10.954;2023-07-20T03:51:02;53.22;31.14;69.90;;
63692;Laerm;49838;51.798;10.954;2023-07-20T03:53:30;60.29;31.54;79.67;;
63692;Laerm;49838;51.798;10.954;2023-07-20T03:55:58;53.91;31.03;72.13;;
63692;Laerm;49838;51.798;10.954;2023-07-20T03:58:25;40.41;31.51;63.62;;
63692;Laerm;49838;51.798;10.954;2023-07-20T04:00:52;57.32;32.23;73.94;;
63692;Laerm;49838;51.798;10.954;2023-07-20T04:03:20;49.96;31.70;66.83;;
63692;Laerm;49838;51.798;10.954;2023-07-20T04:05:49;57.00;32.08;74.25;;
63692;Laerm;49838;51.798;10.954;2023-07-20T04:08:17;54.18;31.51;69.61;;
63692;Laerm;49838;51.798;10.954;2023-07-20T04:10:45;41.22;32.39;57.73;;
63692;Laerm;49838;51.798;10.954;2023-07-20T04:13:12;52.87;32.98;71.81;;
63692;Laerm;49838;51.798;10.954;2023-07-20T04:15:40;54.69;32.34;72.17;;
63692;Laerm;49838;51.798;10.954;2023-07-20T04:18:07;40.32;31.74;57.08;;
63692;Laerm;49838;51.798;10.954;2023-07-20T04:20:34;44.29;31.97;66.78;;
63692;Laerm;49838;51.798;10.954;2023-07-20T04:23:02;36.23;31.83;47.48;;
63692;Laerm;49838;51.798;10.954;2023-07-20T04:25:30;52.48;32.69;70.98;;
63692;Laerm;49838;51.798;10.954;2023-07-20T04:27:59;51.50;32.13;71.26;;
63692;Laerm;49838;51.798;10.954;2023-07-20T04:30:27;53.89;33.15;72.65;;
63692;Laerm;49838;51.798;10.954;2023-07-20T04:32:54;55.41;33.46;73.96;;
63692;Laerm;49838;51.798;10.954;2023-07-20T04:35:46;50.77;32.38;67.88;;
63692;Laerm;49838;51.798;10.954;2023-07-20T04:38:15;53.06;31.94;72.74;;
63692;Laerm;49838;51.798;10.954;2023-07-20T04:40:45;59.84;32.67;73.84;;
63692;Laerm;49838;51.798;10.954;2023-07-20T04:43:14;56.12;32.98;72.77;;
63692;Laerm;49838;51.798;10.954;2023-07-20T04:45:42;59.04;37.36;73.35;;
63692;Laerm;49838;51.798;10.954;2023-07-20T04:48:10;58.67;31.66;76.44;;
63692;Laerm;49838;51.798;10.954;2023-07-20T04:50:40;57.22;31.95;72.24;;
63692;Laerm;49838;51.798;10.954;2023-07-20T04:53:08;53.32;33.11;69.67;;
63692;Laerm;49838;51.798;10.954;2023-07-20T04:55:36;55.31;34.95;71.83;;
63692;Laerm;49838;51.798;10.954;2023-07-20T04:58:05;59.16;32.15;76.56;;
63692;Laerm;49838;51.798;10.954;2023-07-20T05:00:33;63.47;33.82;79.88;;
63692;Laerm;49838;51.798;10.954;2023-07-20T05:03:01;51.76;33.66;68.54;;
63692;Laerm;49838;51.798;10.954;2023-07-20T05:05:31;61.39;37.87;77.29;;
63692;Laerm;49838;51.798;10.954;2023-07-20T05:07:59;60.73;33.65;75.40;;
63692;Laerm;49838;51.798;10.954;2023-07-20T05:10:27;57.60;35.26;73.69;;
63692;Laerm;49838;51.798;10.954;2023-07-20T05:12:55;58.45;34.77;72.14;;
63692;Laerm;49838;51.798;10.954;2023-07-20T05:15:24;62.34;37.73;75.07;;
63692;Laerm;49838;51.798;10.954;2023-07-20T05:17:52;57.10;33.55;73.25;;
63692;Laerm;49838;51.798;10.954;2023-07-20T05:20:20;53.38;32.87;70.90;;
63692;Laerm;49838;51.798;10.954;2023-07-20T05:22:47;37.63;32.77;51.30;;
63692;Laerm;49838;51.798;10.954;2023-07-20T05:25:15;58.79;34.83;74.79;;
63692;Laerm;49838;51.798;10.954;2023-07-20T05:27:45;57.19;39.09;69.87;;
63692;Laerm;49838;51.798;10.954;2023-07-20T05:30:12;63.78;43.12;74.74;;
63692;Laerm;49838;51.798;10.954;2023-07-20T05:32:41;73.23;52.32;82.96;;
63692;Laerm;49838;51.798;10.954;2023-07-20T05:35:08;53.10;39.60;71.32;;
63692;Laerm;49838;51.798;10.954;2023-07-20T05:37:37;46.34;35.30;62.61;;
63692;Laerm;49838;51.798;10.954;2023-07-20T05:40:06;51.58;34.77;68.81;;
63692;Laerm;49838;51.798;10.954;2023-07-20T05:42:33;59.25;35.80;73.62;;
63692;Laerm;49838;51.798;10.954;2023-07-20T05:45:01;58.11;35.48;77.12;;
63692;Laerm;49838;51.798;10.954;2023-07-20T05:47:28;51.43;35.18;70.22;;
63692;Laerm;49838;51.798;10.954;2023-07-20T05:49:57;52.23;40.04;67.53;;
63692;Laerm;49838;51.798;10.954;2023-07-20T05:52:25;76.15;52.98;88.11;;
63692;Laerm;49838;51.798;10.954;2023-07-20T05:54:52;59.31;37.67;74.18;;
63692;Laerm;49838;51.798;10.954;2023-07-20T05:57:20;59.83;35.52;72.54;;
63692;Laerm;49838;51.798;10.954;2023-07-20T05:59:47;60.83;35.44;73.89;;
63692;Laerm;49838;51.798;10.954;2023-07-20T06:02:15;57.58;34.14;71.40;;
63692;Laerm;49838;51.798;10.954;2023-07-20T06:04:42;49.56;33.42;70.30;;
63692;Laerm;49838;51.798;10.954;2023-07-20T06:07:11;56.85;34.14;71.12;;
63692;Laerm;49838;51.798;10.954;2023-07-20T06:09:39;62.69;38.55;76.21;;
63692;Laerm;49838;51.798;10.954;2023-07-20T06:12:08;48.88;32.61;70.33;;
63692;Laerm;49838;51.798;10.954;2023-07-20T06:14:36;52.64;33.23;71.14;;
63692;Laerm;49838;51.798;10.954;2023-07-20T06:17:04;59.48;34.49;75.88;;
63692;Laerm;49838;51.798;10.954;2023-07-20T06:19:32;52.22;32.59;71.36;;
63692;Laerm;49838;51.798;10.954;2023-07-20T06:21:59;62.81;37.28;81.60;;
63692;Laerm;49838;51.798;10.954;2023-07-20T06:24:28;60.54;36.14;74.68;;
63692;Laerm;49838;51.798;10.954;2023-07-20T06:26:55;58.72;36.68;73.60;;
63692;Laerm;49838;51.798;10.954;2023-07-20T06:29:23;53.24;36.28;69.02;;
63692;Laerm;49838;51.798;10.954;2023-07-20T06:31:50;41.22;35.05;53.25;;
63692;Laerm;49838;51.798;10.954;2023-07-20T06:34:17;61.04;35.19;76.38;;
63692;Laerm;49838;51.798;10.954;2023-07-20T06:36:45;59.87;36.15;82.19;;
63692;Laerm;49838;51.798;10.954;2023-07-20T06:39:12;55.59;36.09;70.15;;
63692;Laerm;49838;51.798;10.954;2023-07-20T06:41:41;53.61;37.98;68.70;;
63692;Laerm;49838;51.798;10.954;2023-07-20T06:44:09;53.87;36.79;70.68;;
63692;Laerm;49838;51.798;10.954;2023-07-20T06:46:37;48.77;37.84;67.61;;
63692;Laerm;49838;51.798;10.954;2023-07-20T06:49:06;58.73;39.13;75.57;;
63692;Laerm;49838;51.798;10.954;2023-07-20T06:51:34;59.49;39.08;70.03;;
63692;Laerm;49838;51.798;10.954;2023-07-20T06:54:02;66.33;40.81;83.61;;
63692;Laerm;49838;51.798;10.954;2023-07-20T06:56:30;57.19;36.68;74.98;;
63692;Laerm;49838;51.798;10.954;2023-07-20T06:58:59;59.70;41.32;72.00;;
63692;Laerm;49838;51.798;10.954;2023-07-20T07:01:29;55.10;42.01;71.84;;
63692;Laerm;49838;51.798;10.954;2023-07-20T07:03:56;61.57;43.72;80.96;;
63692;Laerm;49838;51.798;10.954;2023-07-20T07:06:23;62.79;52.29;77.57;;
63692;Laerm;49838;51.798;10.954;2023-07-20T07:08:52;64.29;58.32;74.23;;
63692;Laerm;49838;51.798;10.954;2023-07-20T07:11:20;65.12;56.20;81.09;;
63692;Laerm;49838;51.798;10.954;2023-07-20T07:13:48;64.75;57.62;80.95;;
63692;Laerm;49838;51.798;10.954;2023-07-20T07:16:18;67.89;58.65;81.87;;
63692;Laerm;49838;51.798;10.954;2023-07-20T07:18:46;67.63;60.31;84.19;;
63692;Laerm;49838;51.798;10.954;2023-07-20T07:21:13;67.46;60.71;83.01;;
63692;Laerm;49838;51.798;10.954;2023-07-20T07:23:41;68.22;57.38;83.32;;
63692;Laerm;49838;51.798;10.954;2023-07-20T07:26:09;60.42;52.06;77.66;;
63692;Laerm;49838;51.798;10.954;2023-07-20T07:28:37;63.52;49.93;80.43;;
63692;Laerm;49838;51.798;10.954;2023-07-20T07:31:04;66.42;48.91;81.02;;
63692;Laerm;49838;51.798;10.954;2023-07-20T07:33:33;68.11;50.03;83.17;;
63692;Laerm;49838;51.798;10.954;2023-07-20T07:36:01;65.66;48.17;80.68;;
63692;Laerm;49838;51.798;10.954;2023-07-20T07:38:28;62.60;47.01;78.17;;
63692;Laerm;49838;51.798;10.954;2023-07-20T07:40:57;62.90;49.77;76.22;;
63692;Laerm;49838;51.798;10.954;2023-07-20T07:43:25;66.72;50.29;84.95;;
63692;Laerm;49838;51.798;10.954;2023-07-20T07:45:54;63.34;47.93;80.76;;
63692;Laerm;49838;51.798;10.954;2023-07-20T07:48:21;62.11;45.37;78.50;;
63692;Laerm;49838;51.798;10.954;2023-07-20T07:50:53;61.45;39.89;78.91;;
63692;Laerm;49838;51.798;10.954;2023-07-20T07:53:21;60.83;39.32;74.17;;
63692;Laerm;49838;51.798;10.954;2023-07-20T07:55:48;61.35;39.94;82.20;;
63692;Laerm;49838;51.798;10.954;2023-07-20T07:58:16;60.41;37.82;77.53;;
63692;Laerm;49838;51.798;10.954;2023-07-20T08:00:43;54.30;39.48;69.93;;
63692;Laerm;49838;51.798;10.954;2023-07-20T08:03:11;62.05;41.71;82.21;;
63692;Laerm;49838;51.798;10.954;2023-07-20T08:05:39;61.30;42.91;82.01;;
63692;Laerm;49838;51.798;10.954;2023-07-20T08:08:08;56.38;44.69;72.03;;
63692;Laerm;49838;51.798;10.954;2023-07-20T08:10:35;63.12;44.84;77.01;;
63692;Laerm;49838;51.798;10.954;2023-07-20T08:13:03;62.77;45.09;78.82;;
63692;Laerm;49838;51.798;10.954;2023-07-20T08:15:30;65.53;45.17;81.10;;
63692;Laerm;49838;51.798;10.954;2023-07-20T08:17:58;65.27;45.65;81.24;;
63692;Laerm;49838;51.798;10.954;2023-07-20T08:20:25;58.33;42.49;75.28;;
63692;Laerm;49838;51.798;10.954;2023-07-20T08:22:54;61.44;43.94;80.43;;
63692;Laerm;49838;51.798;10.954;2023-07-20T08:25:23;63.43;42.95;78.01;;
63692;Laerm;49838;51.798;10.954;2023-07-20T08:27:50;60.04;41.89;79.71;;
63692;Laerm;49838;51.798;10.954;2023-07-20T08:30:21;63.26;40.75;76.60;;
63692;Laerm;49838;51.798;10.954;2023-07-20T08:32:48;64.20;39.75;79.60;;
63692;Laerm;49838;51.798;10.954;2023-07-20T08:35:16;56.44;36.99;72.81;;
63692;Laerm;49838;51.798;10.954;2023-07-20T08:37:44;62.23;38.26;78.78;;
63692;Laerm;49838;51.798;10.954;2023-07-20T08:40:13;55.27;36.26;72.58;;
63692;Laerm;49838;51.798;10.954;2023-07-20T08:42:43;59.46;36.13;76.35;;
63692;Laerm;49838;51.798;10.954;2023-07-20T08:45:12;60.14;38.10;76.42;;
63692;Laerm;49838;51.798;10.954;2023-07-20T08:47:42;58.33;35.53;78.44;;
63692;Laerm;49838;51.798;10.954;2023-07-20T08:50:11;58.03;37.17;71.77;;
63692;Laerm;49838;51.798;10.954;2023-07-20T08:52:39;57.84;36.24;73.77;;
63692;Laerm;49838;51.798;10.954;2023-07-20T08:55:08;61.47;38.78;76.66;;
63692;Laerm;49838;51.798;10.954;2023-07-20T08:57:36;58.55;35.31;72.53;;
63692;Laerm;49838;51.798;10.954;2023-07-20T09:00:06;62.51;38.27;80.10;;
63692;Laerm;49838;51.798;10.954;2023-07-20T09:02:38;56.83;36.34;74.54;;
63692;Laerm;49838;51.798;10.954;2023-07-20T09:05:08;56.99;36.29;72.76;;
63692;Laerm;49838;51.798;10.954;2023-07-20T09:07:36;65.94;39.60;83.27;;
63692;Laerm;49838;51.798;10.954;2023-07-20T09:10:04;59.70;37.30;74.01;;
63692;Laerm;49838;51.798;10.954;2023-07-20T09:12:34;52.79;35.56;69.25;;
63692;Laerm;49838;51.798;10.954;2023-07-20T09:15:04;55.94;36.31;71.84;;
63692;Laerm;49838;51.798;10.954;2023-07-20T09:17:32;59.33;39.32;70.20;;
63692;Laerm;49838;51.798;10.954;2023-07-20T09:20:02;49.14;36.20;63.80;;
63692;Laerm;49838;51.798;10.954;2023-07-20T09:22:34;62.76;36.28;78.43;;
63692;Laerm;49838;51.798;10.954;2023-07-20T09:25:01;61.28;37.78;76.50;;
63692;Laerm;49838;51.798;10.954;2023-07-20T09:27:35;59.82;41.56;73.55;;
63692;Laerm;49838;51.798;10.954;2023-07-20T09:30:06;58.18;37.86;73.31;;
63692;Laerm;49838;51.798;10.954;2023-07-20T09:32:38;60.34;39.73;76.15;;
63692;Laerm;49838;51.798;10.954;2023-07-20T09:35:07;62.71;37.88;80.36;;
63692;Laerm;49838;51.798;10.954;2023-07-20T09:37:38;59.41;38.53;73.36;;
63692;Laerm;49838;51.798;10.954;2023-07-20T09:40:07;57.94;37.38;71.35;;
63692;Laerm;49838;51.798;10.954;2023-07-20T09:42:36;49.87;40.05;65.45;;
63692;Laerm;49838;51.798;10.954;2023-07-20T09:45:08;59.21;40.91;73.82;;
63692;Laerm;49838;51.798;10.954;2023-07-20T09:47:37;56.49;42.14;73.75;;
63692;Laerm;49838;51.798;10.954;2023-07-20T09:50:06;61.11;36.99;77.23;;
63692;Laerm;49838;51.798;10.954;2023-07-20T09:52:38;59.23;37.59;70.28;;
63692;Laerm;49838;51.798;10.954;2023-07-20T09:55:07;60.54;37.49;76.90;;
63692;Laerm;49838;51.798;10.954;2023-07-20T09:57:35;52.88;35.45;70.18;;
63692;Laerm;49838;51.798;10.954;2023-07-20T10:00:04;57.72;37.38;73.25;;
63692;Laerm;49838;51.798;10.954;2023-07-20T10:02:44;59.11;36.43;71.39;;
63692;Laerm;49838;51.798;10.954;2023-07-20T10:05:12;59.53;38.27;77.58;;
63692;Laerm;49838;51.798;10.954;2023-07-20T10:07:44;50.33;33.98;66.81;;
63692;Laerm;49838;51.798;10.954;2023-07-20T10:10:14;49.43;35.51;66.50;;
63692;Laerm;49838;51.798;10.954;2023-07-20T10:12:45;57.86;35.31;71.57;;
63692;Laerm;49838;51.798;10.954;2023-07-20T10:15:19;54.24;36.16;68.74;;
63692;Laerm;49838;51.798;10.954;2023-07-20T10:18:02;59.38;38.30;76.10;;
63692;Laerm;49838;51.798;10.954;2023-07-20T10:20:29;53.02;37.25;70.35;;
63692;Laerm;49838;51.798;10.954;2023-07-20T10:22:59;51.11;38.29;67.22;;
63692;Laerm;49838;51.798;10.954;2023-07-20T10:25:28;56.59;37.48;75.13;;
63692;Laerm;49838;51.798;10.954;2023-07-20T10:27:56;58.48;38.71;73.16;;
63692;Laerm;49838;51.798;10.954;2023-07-20T10:30:25;62.55;39.94;82.15;;
63692;Laerm;49838;51.798;10.954;2023-07-20T10:32:54;60.61;36.92;81.54;;
63692;Laerm;49838;51.798;10.954;2023-07-20T10:35:22;61.76;36.20;81.10;;
63692;Laerm;49838;51.798;10.954;2023-07-20T10:37:52;53.42;34.54;70.56;;
63692;Laerm;49838;51.798;10.954;2023-07-20T10:40:27;52.33;36.36;71.19;;
63692;Laerm;49838;51.798;10.954;2023-07-20T10:42:57;61.18;41.73;79.53;;
63692;Laerm;49838;51.798;10.954;2023-07-20T10:45:50;56.68;38.17;73.90;;
63692;Laerm;49838;51.798;10.954;2023-07-20T10:48:21;55.67;39.33;72.06;;
63692;Laerm;49838;51.798;10.954;2023-07-20T10:51:13;56.48;39.96;70.47;;
63692;Laerm;49838;51.798;10.954;2023-07-20T10:53:41;59.73;38.35;77.24;;
63692;Laerm;49838;51.798;10.954;2023-07-20T10:56:11;46.90;39.97;64.26;;
63692;Laerm;49838;51.798;10.954;2023-07-20T10:58:39;60.22;41.54;74.43;;
63692;Laerm;49838;51.798;10.954;2023-07-20T11:01:08;59.15;38.93;70.87;;
63692;Laerm;49838;51.798;10.954;2023-07-20T11:03:38;61.97;42.86;72.96;;
63692;Laerm;49838;51.798;10.954;2023-07-20T11:06:30;57.80;41.78;69.08;;
63692;Laerm;49838;51.798;10.954;2023-07-20T11:09:07;55.88;42.71;71.16;;
63692;Laerm;49838;51.798;10.954;2023-07-20T11:11:39;70.18;38.83;83.06;;
63692;Laerm;49838;51.798;10.954;2023-07-20T11:14:20;52.22;40.95;66.78;;
63692;Laerm;49838;51.798;10.954;2023-07-20T11:16:49;56.10;39.96;69.30;;
63692;Laerm;49838;51.798;10.954;2023-07-20T11:19:22;55.95;37.83;71.35;;
63692;Laerm;49838;51.798;10.954;2023-07-20T11:21:51;52.81;40.55;69.50;;
63692;Laerm;49838;51.798;10.954;2023-07-20T11:24:19;62.40;38.06;81.10;;
63692;Laerm;49838;51.798;10.954;2023-07-20T11:26:48;57.50;39.79;70.18;;
63692;Laerm;49838;51.798;10.954;2023-07-20T11:29:19;54.60;36.82;71.14;;
63692;Laerm;49838;51.798;10.954;2023-07-20T11:31:47;53.15;35.93;71.18;;
63692;Laerm;49838;51.798;10.954;2023-07-20T11:34:18;58.73;40.34;73.47;;
63692;Laerm;49838;51.798;10.954;2023-07-20T11:36:49;60.41;39.78;74.84;;
63692;Laerm;49838;51.798;10.954;2023-07-20T11:39:22;61.72;39.56;73.83;;
63692;Laerm;49838;51.798;10.954;2023-07-20T11:41:52;64.16;39.09;83.79;;
63692;Laerm;49838;51.798;10.954;2023-07-20T11:44:22;59.47;38.24;73.67;;
63692;Laerm;49838;51.798;10.954;2023-07-20T11:47:07;51.26;37.78;68.25;;
63692;Laerm;49838;51.798;10.954;2023-07-20T11:49:36;57.65;37.39;73.77;;
63692;Laerm;49838;51.798;10.954;2023-07-20T11:52:05;59.12;39.03;71.89;;
63692;Laerm;49838;51.798;10.954;2023-07-20T11:54:33;62.23;37.72;81.03;;
63692;Laerm;49838;51.798;10.954;2023-07-20T11:57:01;57.09;37.75;70.87;;
63692;Laerm;49838;51.798;10.954;2023-07-20T11:59:29;57.19;37.91;71.24;;
63692;Laerm;49838;51.798;10.954;2023-07-20T12:01:57;58.23;38.26;74.06;;
63692;Laerm;49838;51.798;10.954;2023-07-20T12:04:25;59.56;37.20;78.47;;
63692;Laerm;49838;51.798;10.954;2023-07-20T12:06:55;57.09;36.93;70.12;;
63692;Laerm;49838;51.798;10.954;2023-07-20T12:09:22;57.57;36.15;74.30;;
63692;Laerm;49838;51.798;10.954;2023-07-20T12:11:50;57.18;37.56;72.60;;
63692;Laerm;49838;51.798;10.954;2023-07-20T12:14:17;57.67;36.74;71.08;;
63692;Laerm;49838;51.798;10.954;2023-07-20T12:16:52;60.30;35.50;77.22;;
63692;Laerm;49838;51.798;10.954;2023-07-20T12:19:20;56.92;35.05;70.31;;
63692;Laerm;49838;51.798;10.954;2023-07-20T12:21:47;54.32;34.61;71.53;;
63692;Laerm;49838;51.798;10.954;2023-07-20T12:24:20;57.32;35.93;70.92;;
63692;Laerm;49838;51.798;10.954;2023-07-20T12:26:47;59.22;37.96;75.37;;
63692;Laerm;49838;51.798;10.954;2023-07-20T12:29:14;57.99;36.94;71.67;;
63692;Laerm;49838;51.798;10.954;2023-07-20T12:31:42;55.97;36.71;74.47;;
63692;Laerm;49838;51.798;10.954;2023-07-20T12:34:10;59.67;38.48;76.75;;
63692;Laerm;49838;51.798;10.954;2023-07-20T12:36:37;52.14;36.16;70.40;;
63692;Laerm;49838;51.798;10.954;2023-07-20T12:39:05;60.37;41.89;77.45;;
63692;Laerm;49838;51.798;10.954;2023-07-20T12:41:34;62.28;36.73;80.06;;
63692;Laerm;49838;51.798;10.954;2023-07-20T12:44:02;55.18;35.43;75.06;;
63692;Laerm;49838;51.798;10.954;2023-07-20T12:46:29;59.52;40.52;74.28;;
63692;Laerm;49838;51.798;10.954;2023-07-20T12:49:01;55.07;37.89;69.93;;
63692;Laerm;49838;51.798;10.954;2023-07-20T12:51:28;56.23;37.86;77.35;;
63692;Laerm;49838;51.798;10.954;2023-07-20T12:53:56;57.53;39.47;71.65;;
63692;Laerm;49838;51.798;10.954;2023-07-20T12:56:23;57.82;35.75;69.73;;
63692;Laerm;49838;51.798;10.954;2023-07-20T12:58:52;56.53;37.31;68.84;;
63692;Laerm;49838;51.798;10.954;2023-07-20T13:01:19;63.39;37.16;81.93;;
63692;Laerm;49838;51.798;10.954;2023-07-20T13:03:47;55.44;37.32;70.18;;
63692;Laerm;49838;51.798;10.954;2023-07-20T13:06:14;56.57;38.55;71.81;;
63692;Laerm;49838;51.798;10.954;2023-07-20T13:08:42;58.42;37.94;72.62;;
63692;Laerm;49838;51.798;10.954;2023-07-20T13:11:09;53.03;35.80;71.44;;
63692;Laerm;49838;51.798;10.954;2023-07-20T13:13:37;55.71;35.78;73.41;;
63692;Laerm;49838;51.798;10.954;2023-07-20T13:16:05;58.64;37.59;74.28;;
63692;Laerm;49838;51.798;10.954;2023-07-20T13:18:33;58.64;39.48;78.10;;
63692;Laerm;49838;51.798;10.954;2023-07-20T13:21:00;48.48;34.45;79.09;;
63692;Laerm;49838;51.798;10.954;2023-07-20T13:23:28;58.40;37.82;74.38;;
63692;Laerm;49838;51.798;10.954;2023-07-20T13:25:55;61.85;41.43;78.32;;
63692;Laerm;49838;51.798;10.954;2023-07-20T13:28:23;58.29;39.69;70.69;;
63692;Laerm;49838;51.798;10.954;2023-07-20T13:30:50;53.49;37.22;69.32;;
63692;Laerm;49838;51.798;10.954;2023-07-20T13:33:19;58.55;36.63;72.22;;
63692;Laerm;49838;51.798;10.954;2023-07-20T13:35:47;59.26;36.17;75.15;;
63692;Laerm;49838;51.798;10.954;2023-07-20T13:38:17;63.18;38.33;85.33;;
63692;Laerm;49838;51.798;10.954;2023-07-20T13:40:44;58.42;37.19;76.06;;
63692;Laerm;49838;51.798;10.954;2023-07-20T13:43:12;59.30;39.07;76.01;;